Time;durP1;ratioP1;P1;durP2;ratioP2;P2;SDS_P1;SDS_P2;PMS_P1;PMS_P2;Temp;Humidity;BMP_temperature;BMP_pressure;BME280_temperature;BME280_humidity;BME280_pressure;Samples;Min_cycle;Max_cycle;Signal;HPM_P1;HPM_P2
2022/03/22 00:00:09;;;;;;;37.87;16.80;;;2.00;1.00;;;;;;4329973;28;656993;-63
2022/03/22 00:02:56;;;;;;;41.55;16.63;;;2.00;1.00;;;;;;4334147;28;657939;-64
2022/03/22 00:05:45;;;;;;;45.90;17.60;;;1.90;1.00;;;;;;4351145;28;656866;-63
2022/03/22 00:08:32;;;;;;;40.60;16.13;;;1.90;1.00;;;;;;4328975;28;657045;-63
2022/03/22 00:11:20;;;;;;;45.83;17.20;;;1.90;1.00;;;;;;4350679;28;656821;-63
2022/03/22 00:14:09;;;;;;;44.90;17.50;;;1.80;1.00;;;;;;4352381;28;657727;-63
2022/03/22 00:16:58;;;;;;;41.67;15.57;;;1.80;1.00;;;;;;4332744;28;656715;-63
2022/03/22 00:19:45;;;;;;;35.53;14.82;;;1.80;1.00;;;;;;4339915;28;656946;-64
2022/03/22 00:22:33;;;;;;;43.20;15.87;;;1.70;1.00;;;;;;4352616;28;657444;-63
2022/03/22 00:25:21;;;;;;;40.97;15.40;;;1.70;1.00;;;;;;4335407;28;656295;-63
2022/03/22 00:28:08;;;;;;;39.70;16.10;;;1.70;1.00;;;;;;4359370;28;656397;-63
2022/03/22 00:30:56;;;;;;;41.07;15.67;;;1.60;1.00;;;;;;4328133;28;657140;-64
2022/03/22 00:33:45;;;;;;;39.60;15.98;;;1.70;1.00;;;;;;4351816;28;656734;-63
2022/03/22 00:36:34;;;;;;;41.00;15.97;;;1.60;1.00;;;;;;4329113;28;657402;-63
2022/03/22 00:39:21;;;;;;;44.03;16.47;;;1.50;1.00;;;;;;4330733;28;656938;-63
2022/03/22 00:42:10;;;;;;;42.83;16.77;;;1.50;1.00;;;;;;4350079;28;656691;-63
2022/03/22 00:44:57;;;;;;;42.07;16.50;;;1.40;1.00;;;;;;4334002;28;657409;-63
2022/03/22 00:47:45;;;;;;;40.23;16.37;;;1.40;1.00;;;;;;4344644;28;656743;-63
2022/03/22 00:50:37;;;;;;;39.40;16.37;;;1.30;1.00;;;;;;4326433;28;656870;-64
2022/03/22 00:53:24;;;;;;;41.80;16.70;;;1.20;1.00;;;;;;4332055;28;657604;-63
2022/03/22 00:56:12;;;;;;;38.80;15.40;;;1.20;1.00;;;;;;4334039;28;658791;-63
2022/03/22 01:02:05;;;;;;;36.93;14.90;;;1.10;1.00;;;;;;4326504;28;657078;-64
2022/03/22 01:04:52;;;;;;;36.63;15.80;;;1.00;1.00;;;;;;4326911;28;657830;-64
2022/03/22 01:07:41;;;;;;;38.50;15.52;;;1.00;1.00;;;;;;4350839;28;656776;-63
2022/03/22 01:10:29;;;;;;;43.33;16.33;;;1.00;1.00;;;;;;4326508;28;656764;-63
2022/03/22 01:13:17;;;;;;;49.03;17.83;;;1.10;1.00;;;;;;4330049;28;657324;-63
2022/03/22 01:16:05;;;;;;;43.57;17.57;;;1.00;1.00;;;;;;4351628;28;656838;-63
2022/03/22 01:18:52;;;;;;;41.65;17.05;;;1.00;1.00;;;;;;4334470;28;657152;-63
2022/03/22 01:21:40;;;;;;;44.13;18.23;;;0.90;1.00;;;;;;4352295;28;656993;-63
2022/03/22 01:24:29;;;;;;;41.93;17.03;;;1.00;1.00;;;;;;4350993;28;656358;-63
2022/03/22 01:27:17;;;;;;;39.93;15.97;;;1.00;1.00;;;;;;4333871;28;656785;-63
2022/03/22 01:30:07;;;;;;;38.90;15.47;;;1.00;1.00;;;;;;4351602;28;655834;-63
2022/03/22 01:32:55;;;;;;;37.30;15.50;;;1.00;1.00;;;;;;4328175;28;657444;-63
2022/03/22 01:35:42;;;;;;;39.33;15.80;;;0.90;1.00;;;;;;4326955;28;657513;-63
2022/03/22 01:38:30;;;;;;;33.60;14.83;;;1.00;1.00;;;;;;4350288;28;656396;-63
2022/03/22 01:41:19;;;;;;;40.13;15.57;;;0.90;1.00;;;;;;4334847;28;658125;-63
2022/03/22 01:44:06;;;;;;;35.73;15.37;;;0.90;1.00;;;;;;4331613;28;656568;-63
2022/03/22 01:46:56;;;;;;;38.10;15.40;;;0.80;1.00;;;;;;4350715;28;656747;-63
2022/03/22 01:49:44;;;;;;;41.40;15.40;;;0.90;1.00;;;;;;4321567;28;657937;-63
2022/03/22 01:52:31;;;;;;;39.17;15.47;;;0.90;1.00;;;;;;4330998;28;656533;-63
2022/03/22 01:55:20;;;;;;;40.33;15.65;;;0.80;1.00;;;;;;4350617;28;657683;-63
2022/03/22 01:58:09;;;;;;;38.83;15.83;;;0.80;1.00;;;;;;4327680;28;657999;-63
2022/03/22 02:05:51;;;;;;;47.53;16.67;;;0.70;1.00;;;;;;4332345;28;656153;-63
2022/03/22 02:07:09;;;;;;;38.93;16.03;;;0.60;1.00;;;;;;4328143;28;656889;-63
2022/03/22 02:09:57;;;;;;;48.27;17.43;;;0.60;1.00;;;;;;4326822;28;656213;-64
2022/03/22 02:12:45;;;;;;;42.90;17.73;;;0.50;1.00;;;;;;4348720;28;656767;-63
2022/03/22 02:15:33;;;;;;;41.67;16.33;;;0.50;1.00;;;;;;4326629;28;657915;-63
2022/03/22 02:18:21;;;;;;;38.83;15.37;;;0.50;1.00;;;;;;4327903;28;656405;-63
2022/03/22 02:21:09;;;;;;;40.60;15.73;;;0.50;1.00;;;;;;4348921;28;656833;-63
2022/03/22 02:23:58;;;;;;;40.20;15.23;;;0.50;1.00;;;;;;4328416;28;656629;-65
2022/03/22 02:26:46;;;;;;;41.97;15.83;;;0.50;1.00;;;;;;4334115;28;656306;-65
2022/03/22 02:29:34;;;;;;;38.97;15.43;;;0.50;1.00;;;;;;4356299;28;657409;-63
2022/03/22 02:32:24;;;;;;;41.93;15.67;;;0.30;1.00;;;;;;4328558;28;656586;-63
2022/03/22 02:35:11;;;;;;;38.43;15.60;;;0.30;1.00;;;;;;4333187;28;656292;-63
2022/03/22 02:37:59;;;;;;;38.33;15.30;;;0.20;1.00;;;;;;4354177;28;656537;-63
2022/03/22 02:40:50;;;;;;;43.90;15.87;;;0.10;1.00;;;;;;4325973;28;656724;-63
2022/03/22 02:43:38;;;;;;;35.33;14.87;;;0.00;1.00;;;;;;4326632;28;657351;-63
2022/03/22 02:46:26;;;;;;;40.38;16.73;;;0.00;1.00;;;;;;4337629;28;656368;-63
2022/03/22 02:49:13;;;;;;;37.50;15.23;;;-0.10;1.00;;;;;;4355001;28;657502;-65
2022/03/22 02:52:00;;;;;;;44.63;17.00;;;-0.10;1.00;;;;;;4328360;28;658160;-63
2022/03/22 02:54:48;;;;;;;44.80;17.07;;;-0.20;1.00;;;;;;4349538;28;658375;-63
2022/03/22 02:57:37;;;;;;;46.97;16.93;;;-0.30;1.00;;;;;;4334176;28;658527;-63
2022/03/22 03:00:26;;;;;;;40.60;16.60;;;-0.40;1.00;;;;;;4350285;28;657821;-64
2022/03/22 03:03:14;;;;;;;43.17;17.30;;;-0.50;1.00;;;;;;4324515;28;658305;-63
2022/03/22 03:06:01;;;;;;;42.33;15.93;;;-0.60;1.00;;;;;;4327846;28;657448;-63
2022/03/22 03:08:48;;;;;;;44.90;16.33;;;-0.70;1.00;;;;;;4346896;28;658224;-63
2022/03/22 03:11:36;;;;;;;44.93;16.40;;;-0.70;1.00;;;;;;4330694;28;659571;-63
2022/03/22 03:14:40;;;;;;;38.07;16.03;;;-0.70;1.00;;;;;;4350638;28;659101;-63
2022/03/22 03:17:27;;;;;;;44.80;17.07;;;-0.80;1.00;;;;;;4300273;28;659004;-63
2022/03/22 03:20:14;;;;;;;39.80;16.80;;;-0.70;1.00;;;;;;4349333;28;657403;-65
2022/03/22 03:23:02;;;;;;;45.67;18.23;;;-0.70;1.00;;;;;;4328612;28;658469;-63
2022/03/22 03:25:49;;;;;;;41.88;17.23;;;-0.70;1.00;;;;;;4352624;28;657517;-63
2022/03/22 03:28:37;;;;;;;49.40;18.33;;;-0.70;1.00;;;;;;4324358;28;657656;-63
2022/03/22 03:31:26;;;;;;;49.40;19.27;;;-0.70;1.00;;;;;;4352287;28;657527;-63
2022/03/22 03:34:13;;;;;;;48.83;18.67;;;-0.70;1.00;;;;;;4332782;28;658272;-65
2022/03/22 03:37:01;;;;;;;43.33;18.27;;;-0.70;1.00;;;;;;4332436;28;657540;-65
2022/03/22 03:39:48;;;;;;;45.63;18.97;;;-0.70;1.00;;;;;;4351152;28;659449;-65
2022/03/22 03:42:42;;;;;;;50.70;20.67;;;-0.70;1.00;;;;;;4336813;28;658015;-65
2022/03/22 03:48:35;;;;;;;56.13;21.17;;;-0.80;1.00;;;;;;4319916;28;658126;-64
2022/03/22 03:51:22;;;;;;;53.67;19.00;;;-0.80;1.00;;;;;;4332075;28;658234;-65
2022/03/22 03:54:10;;;;;;;45.23;19.30;;;-0.90;1.00;;;;;;4349921;28;657468;-65
2022/03/22 03:56:58;;;;;;;52.63;19.57;;;-0.90;1.00;;;;;;4349117;28;657521;-65
2022/03/22 03:59:46;;;;;;;53.42;21.35;;;-0.80;1.00;;;;;;4338360;28;657357;-65
2022/03/22 04:02:33;;;;;;;53.90;22.77;;;-0.80;1.00;;;;;;4365596;28;658761;-65
2022/03/22 04:05:22;;;;;;;63.40;22.77;;;-0.70;1.00;;;;;;4331741;28;657760;-65
2022/03/22 04:08:10;;;;;;;60.67;23.53;;;-0.60;1.00;;;;;;4354758;28;658275;-65
2022/03/22 04:10:57;;;;;;;60.47;23.77;;;-0.60;1.00;;;;;;4338908;28;658763;-65
2022/03/22 04:13:45;;;;;;;60.03;23.70;;;-0.50;1.00;;;;;;4357509;28;657560;-65
2022/03/22 04:16:32;;;;;;;58.47;23.33;;;-0.50;1.00;;;;;;4332504;28;658050;-65
2022/03/22 04:19:20;;;;;;;58.57;23.67;;;-0.60;1.00;;;;;;4356190;28;657655;-65
2022/03/22 04:22:09;;;;;;;60.23;23.67;;;-0.50;1.00;;;;;;4332482;28;658575;-65
2022/03/22 04:24:56;;;;;;;58.87;23.73;;;-0.50;1.00;;;;;;4326334;28;657999;-65
2022/03/22 04:33:53;;;;;;;57.78;22.65;;;-0.30;1.00;;;;;;4324346;28;658087;-65
2022/03/22 04:36:41;;;;;;;51.07;21.73;;;-0.10;1.00;;;;;;4336184;28;657951;-65
2022/03/22 04:39:30;;;;;;;63.07;22.87;;;0.00;1.00;;;;;;4355027;28;658105;-65
2022/03/22 04:42:18;;;;;;;56.60;22.53;;;0.20;1.00;;;;;;4336616;28;656801;-65
2022/03/22 04:45:06;;;;;;;48.72;21.42;;;0.30;1.00;;;;;;4336121;28;656418;-65
2022/03/22 04:47:54;;;;;;;53.57;22.07;;;0.30;1.00;;;;;;4353857;28;657218;-65
2022/03/22 04:50:41;;;;;;;50.30;19.73;;;0.40;1.00;;;;;;4327772;28;656664;-65
2022/03/22 04:56:45;;;;;;;45.90;18.60;;;0.50;1.00;;;;;;4299456;29;656778;-65
2022/03/22 04:59:33;;;;;;;48.30;18.57;;;0.50;1.00;;;;;;4248880;29;657087;-64
2022/03/22 05:02:20;;;;;;;42.42;17.30;;;0.60;1.00;;;;;;4283899;29;656635;-66
2022/03/22 05:05:09;;;;;;;44.17;17.73;;;0.70;1.00;;;;;;4301300;29;657964;-65
2022/03/22 05:07:56;;;;;;;40.33;17.23;;;0.90;1.00;;;;;;4282223;29;656873;-65
2022/03/22 05:10:44;;;;;;;46.67;17.63;;;0.90;1.00;;;;;;4303680;29;657471;-65
2022/03/22 05:13:33;;;;;;;47.73;18.30;;;1.00;1.00;;;;;;4282265;29;656774;-65
2022/03/22 05:16:21;;;;;;;43.35;18.23;;;1.10;1.00;;;;;;4291084;29;656626;-65
2022/03/22 05:19:08;;;;;;;47.42;18.83;;;1.20;1.00;;;;;;4300809;29;657417;-65
2022/03/22 05:21:56;;;;;;;54.63;19.67;;;1.20;1.00;;;;;;4282988;29;656511;-65
2022/03/22 05:24:43;;;;;;;51.10;20.05;;;1.40;1.00;;;;;;4296467;29;656851;-65
2022/03/22 05:27:31;;;;;;;47.87;19.67;;;1.50;1.00;;;;;;4277010;29;656828;-65
2022/03/22 05:30:20;;;;;;;57.63;19.67;;;1.60;1.00;;;;;;4305947;29;657702;-66
2022/03/22 05:33:07;;;;;;;43.60;17.63;;;1.80;1.00;;;;;;4283847;29;658067;-65
2022/03/22 05:35:55;;;;;;;48.07;19.37;;;1.90;1.00;;;;;;4299761;29;656678;-65
2022/03/22 05:38:42;;;;;;;42.70;17.90;;;2.10;1.00;;;;;;4327044;28;657798;-66
2022/03/22 05:41:30;;;;;;;44.80;18.10;;;2.20;1.00;;;;;;4351853;28;656981;-66
2022/03/22 05:44:17;;;;;;;45.93;18.73;;;2.40;1.00;;;;;;4330039;28;658256;-65
2022/03/22 05:47:07;;;;;;;41.50;18.67;;;2.50;1.00;;;;;;4357169;28;655867;-65
2022/03/22 05:49:56;;;;;;;43.60;17.88;;;2.80;1.00;;;;;;4328276;28;657078;-66
2022/03/22 05:52:43;;;;;;;46.97;19.83;;;3.00;1.00;;;;;;4354560;28;657645;-63
2022/03/22 05:55:31;;;;;;;42.20;18.50;;;3.20;1.00;;;;;;4333099;28;656757;-63
2022/03/22 05:58:18;;;;;;;37.10;16.70;;;3.40;1.00;;;;;;4355039;28;657503;-63
2022/03/22 06:01:07;;;;;;;52.40;17.37;;;3.70;1.00;;;;;;4330364;28;656478;-65
2022/03/22 06:03:56;;;;;;;37.50;16.33;;;4.00;1.00;;;;;;4350867;28;657906;-66
2022/03/22 06:06:43;;;;;;;36.43;16.17;;;4.20;1.00;;;;;;4333692;28;656968;-66
2022/03/22 06:09:31;;;;;;;38.17;16.67;;;4.40;1.00;;;;;;4331098;28;656836;-65
2022/03/22 06:12:19;;;;;;;36.00;15.67;;;4.60;1.00;;;;;;4353057;28;657324;-65
2022/03/22 06:15:17;;;;;;;40.57;16.93;;;4.80;1.00;;;;;;4331276;28;656517;-63
2022/03/22 06:18:05;;;;;;;38.37;15.30;;;5.00;1.00;;;;;;4324602;28;656502;-63
2022/03/22 06:20:54;;;;;;;35.43;15.80;;;5.20;1.00;;;;;;4323158;28;658189;-63
2022/03/22 06:23:41;;;;;;;37.27;16.10;;;5.50;1.00;;;;;;4325752;28;657731;-63
2022/03/22 06:26:29;;;;;;;39.27;16.67;;;5.70;1.00;;;;;;4357548;28;657674;-64
2022/03/22 06:29:16;;;;;;;39.40;16.93;;;5.80;1.00;;;;;;4328644;28;657248;-63
2022/03/22 06:32:10;;;;;;;42.80;18.37;;;6.00;1.00;;;;;;4354701;28;657300;-63
2022/03/22 06:34:57;;;;;;;41.38;17.73;;;6.20;1.00;;;;;;4329232;28;657239;-65
2022/03/22 06:37:48;;;;;;;42.00;17.33;;;6.30;1.00;;;;;;4352147;28;656704;-65
2022/03/22 06:40:37;;;;;;;35.87;15.97;;;6.50;1.00;;;;;;4326759;28;656913;-65
2022/03/22 06:43:25;;;;;;;37.87;16.47;;;6.70;1.00;;;;;;4349514;28;659064;-64
2022/03/22 06:46:12;;;;;;;37.13;15.70;;;6.90;1.00;;;;;;4327881;28;659176;-65
2022/03/22 06:49:01;;;;;;;37.03;16.30;;;7.00;1.00;;;;;;4348957;28;656252;-63
2022/03/22 06:51:48;;;;;;;35.37;15.37;;;7.20;1.00;;;;;;4345787;28;656708;-65
2022/03/22 06:54:38;;;;;;;36.63;15.88;;;7.40;1.00;;;;;;4329003;28;656745;-65
2022/03/22 06:57:27;;;;;;;38.60;15.37;;;7.60;1.00;;;;;;4332185;28;657389;-65
2022/03/22 07:00:17;;;;;;;29.77;13.37;;;7.70;1.00;;;;;;4355551;28;656385;-63
2022/03/22 07:03:05;;;;;;;32.73;14.20;;;7.90;1.00;;;;;;4323374;28;657259;-65
2022/03/22 07:05:55;;;;;;;28.70;12.93;;;8.10;1.00;;;;;;4353225;28;657704;-65
2022/03/22 07:08:42;;;;;;;31.50;13.47;;;8.30;1.00;;;;;;4330592;28;657438;-65
2022/03/22 07:14:40;;;;;;;30.77;13.23;;;8.60;1.00;;;;;;4303413;28;656703;-65
2022/03/22 07:17:28;;;;;;;28.90;13.57;;;8.70;1.00;;;;;;4334834;28;657820;-65
2022/03/22 07:20:15;;;;;;;28.30;13.97;;;8.80;1.00;;;;;;4339142;28;656451;-65
2022/03/22 07:23:03;;;;;;;28.03;13.80;;;9.00;1.00;;;;;;4360782;28;657136;-65
2022/03/22 07:25:51;;;;;;;28.50;13.50;;;9.10;1.00;;;;;;4346471;28;656407;-65
2022/03/22 07:28:40;;;;;;;28.00;13.50;;;9.30;1.00;;;;;;4355623;28;657493;-63
2022/03/22 07:31:28;;;;;;;31.87;14.57;;;9.40;1.00;;;;;;4328650;28;657598;-65
2022/03/22 07:34:17;;;;;;;29.37;14.17;;;9.50;1.00;;;;;;4334612;28;656594;-65
2022/03/22 07:37:05;;;;;;;25.93;10.97;;;9.70;1.00;;;;;;4349142;28;656674;-63
2022/03/22 07:39:52;;;;;;;26.87;13.53;;;9.90;1.00;;;;;;4324253;28;658349;-65
2022/03/22 07:42:40;;;;;;;31.97;14.07;;;10.10;1.00;;;;;;4351639;28;656536;-65
2022/03/22 07:45:29;;;;;;;29.87;13.60;;;10.30;1.00;;;;;;4331887;28;658265;-65
2022/03/22 07:48:19;;;;;;;29.97;15.13;;;10.50;1.00;;;;;;4330108;28;658944;-65
2022/03/22 07:54:12;;;;;;;28.77;14.53;;;10.90;1.00;;;;;;4299559;28;658746;-63
2022/03/22 07:57:00;;;;;;;32.87;14.57;;;11.20;1.00;;;;;;4353819;28;657052;-65
2022/03/22 07:59:48;;;;;;;31.67;14.20;;;11.40;1.00;;;;;;4332520;28;658786;-63
2022/03/22 08:02:37;;;;;;;27.93;13.73;;;11.60;1.00;;;;;;4327604;28;657789;-66
2022/03/22 08:05:25;;;;;;;29.87;14.57;;;11.80;1.00;;;;;;4352461;28;658291;-65
2022/03/22 08:08:14;;;;;;;31.47;14.47;;;11.80;1.00;;;;;;4330269;28;658234;-65
2022/03/22 08:11:02;;;;;;;29.83;14.03;;;11.80;1.00;;;;;;4309979;28;659175;-65
2022/03/22 08:13:50;;;;;;;32.33;15.77;;;11.90;1.00;;;;;;4329822;28;658221;-65
2022/03/22 08:16:38;;;;;;;29.43;14.97;;;12.00;1.00;;;;;;4307020;28;658980;-66
2022/03/22 08:19:29;;;;;;;31.43;15.23;;;12.20;1.00;;;;;;4319241;28;657604;-65
2022/03/22 08:22:17;;;;;;;34.13;15.03;;;12.20;1.00;;;;;;4313000;28;657414;-65
2022/03/22 08:25:07;;;;;;;29.70;15.90;;;12.40;1.00;;;;;;4332399;28;657509;-65
2022/03/22 08:27:55;;;;;;;29.93;15.30;;;12.60;1.00;;;;;;4311905;28;659468;-65
2022/03/22 08:30:42;;;;;;;29.67;15.43;;;12.70;1.00;;;;;;4311559;28;659091;-66
2022/03/22 08:33:30;;;;;;;30.93;15.70;;;12.80;1.00;;;;;;4341551;28;658157;-65
2022/03/22 08:36:19;;;;;;;30.60;16.80;;;13.10;1.00;;;;;;4314465;28;658632;-66
2022/03/22 08:39:06;;;;;;;30.30;14.80;;;13.40;1.00;;;;;;4317300;28;657416;-66
2022/03/22 08:41:54;;;;;;;30.60;15.23;;;13.70;1.00;;;;;;4339219;28;658319;-65
2022/03/22 08:44:41;;;;;;;30.53;16.03;;;13.80;1.00;;;;;;4314188;28;657608;-66
2022/03/22 08:47:29;;;;;;;30.50;15.90;;;14.00;1.00;;;;;;4332969;28;658378;-65
2022/03/22 08:50:17;;;;;;;38.63;18.53;;;14.20;1.00;;;;;;4315192;28;658423;-65
2022/03/22 08:53:07;;;;;;;29.90;15.77;;;14.40;1.00;;;;;;4329511;28;658531;-66
2022/03/22 08:55:55;;;;;;;43.20;20.33;;;14.60;1.00;;;;;;4329124;28;657594;-66
2022/03/22 08:58:44;;;;;;;39.83;19.03;;;14.80;1.00;;;;;;4338548;28;658402;-66
2022/03/22 09:01:31;;;;;;;34.23;17.07;;;14.70;1.00;;;;;;4311241;28;657377;-66
2022/03/22 09:07:26;;;;;;;28.93;15.60;;;15.10;1.00;;;;;;4257367;29;657520;-66
2022/03/22 09:10:18;;;;;;;28.00;15.33;;;15.10;1.00;;;;;;4307172;29;658205;-66
2022/03/22 09:13:06;;;;;;;29.33;15.70;;;15.00;1.00;;;;;;4292742;29;657627;-66
2022/03/22 09:15:54;;;;;;;29.17;15.40;;;15.00;1.00;;;;;;4290056;29;657682;-66
2022/03/22 09:18:41;;;;;;;30.87;16.00;;;15.10;1.00;;;;;;4283588;29;658582;-66
2022/03/22 09:21:29;;;;;;;28.13;16.07;;;15.30;1.00;;;;;;4299152;29;658649;-66
2022/03/22 09:24:17;;;;;;;31.80;15.43;;;15.40;1.00;;;;;;4281721;29;658717;-66
2022/03/22 09:27:06;;;;;;;30.90;16.87;;;15.60;99.90;;;;;;4295445;29;657561;-66
2022/03/22 09:29:53;;;;;;;29.33;15.40;;;15.70;99.90;;;;;;4267133;29;659309;-63
2022/03/22 09:32:42;;;;;;;27.10;15.47;;;15.70;99.90;;;;;;4275236;29;658710;-66
2022/03/22 09:35:30;;;;;;;27.35;15.15;;;15.80;99.90;;;;;;4301370;29;659940;-65
2022/03/22 09:38:17;;;;;;;28.70;16.03;;;15.60;99.90;;;;;;4280513;29;659894;-65
2022/03/22 09:41:05;;;;;;;30.53;15.87;;;15.60;99.90;;;;;;4293909;29;658871;-66
2022/03/22 09:43:54;;;;;;;32.67;16.13;;;15.90;99.90;;;;;;4274620;29;660567;-66
2022/03/22 09:46:45;;;;;;;29.57;16.73;;;16.00;99.90;;;;;;4284325;29;658433;-66
2022/03/22 09:49:33;;;;;;;28.47;15.17;;;16.40;99.90;;;;;;4331074;28;659162;-66
2022/03/22 09:52:20;;;;;;;26.58;14.70;;;16.40;99.90;;;;;;4333046;28;658687;-66
2022/03/22 09:55:10;;;;;;;24.87;12.90;;;16.70;99.90;;;;;;4347794;28;659773;-66
2022/03/22 09:57:57;;;;;;;30.07;14.77;;;16.70;99.90;;;;;;4327455;28;660191;-66
2022/03/22 10:00:46;;;;;;;27.23;14.93;;;16.80;99.90;;;;;;4342129;28;658348;-66
2022/03/22 10:03:33;;;;;;;23.80;13.23;;;16.90;99.90;;;;;;4313576;28;660252;-64
2022/03/22 10:06:21;;;;;;;23.33;13.33;;;17.10;99.90;;;;;;4329616;28;659057;-65
2022/03/22 10:09:09;;;;;;;26.47;14.07;;;17.50;99.90;;;;;;4353338;28;659142;-66
2022/03/22 10:11:57;;;;;;;33.03;15.90;;;17.70;99.90;;;;;;4326164;28;658337;-65
2022/03/22 10:14:44;;;;;;;27.70;15.40;;;17.80;99.90;;;;;;4343272;28;658200;-65
2022/03/22 10:17:33;;;;;;;24.37;13.13;;;17.90;99.90;;;;;;4324663;28;660425;-65
2022/03/22 10:20:24;;;;;;;25.70;13.07;;;18.10;99.90;;;;;;4333457;28;660248;-65
2022/03/22 10:23:12;;;;;;;26.83;12.90;;;18.00;99.90;;;;;;4321058;28;658957;-65
2022/03/22 10:26:04;;;;;;;32.27;15.37;;;18.00;99.90;;;;;;4346075;28;658144;-65
2022/03/22 10:28:52;;;;;;;27.48;14.93;;;18.00;99.90;;;;;;4303774;28;659691;-66
2022/03/22 10:31:40;;;;;;;32.67;15.60;;;18.00;99.90;;;;;;4342084;28;658447;-66
2022/03/22 10:34:30;;;;;;;25.43;13.60;;;17.90;99.90;;;;;;4325648;28;659273;-65
2022/03/22 10:37:26;;;;;;;30.07;15.23;;;18.40;99.90;;;;;;4326335;28;659484;-66
2022/03/22 10:40:26;;;;;;;25.57;14.87;;;18.60;99.90;;;;;;4324037;28;658887;-66
2022/03/22 10:43:14;;;;;;;32.23;15.10;;;18.20;99.90;;;;;;4325853;28;659091;-66
2022/03/22 10:46:02;;;;;;;35.80;15.80;;;18.20;99.90;;;;;;4327922;28;659693;-66
2022/03/22 10:48:51;;;;;;;27.50;13.90;;;18.30;99.90;;;;;;4346418;28;658654;-66
2022/03/22 10:51:44;;;;;;;26.67;13.63;;;18.50;99.90;;;;;;4332483;28;658657;-66
2022/03/22 10:54:31;;;;;;;33.27;15.73;;;19.10;99.90;;;;;;4327929;28;658669;-66
2022/03/22 10:57:22;;;;;;;29.80;14.73;;;19.30;99.90;;;;;;4351064;28;658310;-66
2022/03/22 11:00:11;;;;;;;31.87;15.77;;;19.40;99.90;;;;;;4322495;28;659766;-65
2022/03/22 11:02:58;;;;;;;32.57;15.57;;;19.70;99.90;;;;;;4322737;28;659431;-65
2022/03/22 11:05:47;;;;;;;24.30;12.97;;;19.60;99.90;;;;;;4332929;28;658649;-65
2022/03/22 11:08:37;;;;;;;26.60;13.67;;;18.70;99.90;;;;;;4348270;28;659258;-65
2022/03/22 11:11:25;;;;;;;24.53;14.03;;;18.40;99.90;;;;;;4330239;28;659008;-65
2022/03/22 11:14:13;;;;;;;33.50;16.23;;;18.40;99.90;;;;;;4321196;28;660160;-65
2022/03/22 11:17:00;;;;;;;21.47;11.93;;;18.40;99.90;;;;;;4328875;28;659645;-66
2022/03/22 11:19:49;;;;;;;31.63;12.23;;;19.10;99.90;;;;;;4351425;28;658421;-65
2022/03/22 11:22:37;;;;;;;31.40;13.70;;;19.20;99.90;;;;;;4322670;28;658554;-66
2022/03/22 11:25:31;;;;;;;26.97;14.60;;;19.40;99.90;;;;;;4339236;28;659003;-66
2022/03/22 11:28:19;;;;;;;28.57;13.90;;;19.80;99.90;;;;;;4326530;28;659131;-66
2022/03/22 11:31:09;;;;;;;31.43;12.57;;;20.10;99.90;;;;;;4324231;28;659810;-65
2022/03/22 11:34:11;;;;;;;30.23;13.97;;;19.80;99.90;;;;;;4328452;28;658430;-66
2022/03/22 11:36:59;;;;;;;27.70;13.53;;;19.60;99.90;;;;;;4323083;28;660386;-66
2022/03/22 11:42:59;;;;;;;30.50;15.23;;;20.00;99.90;;;;;;4304419;28;660633;-66
2022/03/22 11:45:50;;;;;;;22.03;12.03;;;20.20;99.90;;;;;;4332435;28;658619;-65
2022/03/22 11:48:39;;;;;;;25.17;13.63;;;20.30;99.90;;;;;;4332329;28;659612;-66
2022/03/22 11:51:27;;;;;;;28.27;15.07;;;20.40;99.90;;;;;;4334079;28;659350;-66
2022/03/22 11:54:14;;;;;;;30.93;15.53;;;20.30;99.90;;;;;;4341424;28;658661;-66
2022/03/22 11:57:02;;;;;;;34.13;15.17;;;19.90;99.90;;;;;;4333266;28;658926;-65
2022/03/22 11:59:52;;;;;;;27.03;15.03;;;20.50;99.90;;;;;;4351261;28;658554;-66
2022/03/22 12:02:41;;;;;;;24.43;13.70;;;20.10;99.90;;;;;;4330567;28;659422;-66
2022/03/22 12:05:29;;;;;;;30.83;12.43;;;20.70;99.90;;;;;;4329851;28;659174;-66
2022/03/22 12:08:17;;;;;;;32.10;13.93;;;21.40;99.90;;;;;;4332197;28;660222;-65
2022/03/22 12:11:05;;;;;;;27.93;14.30;;;20.90;99.90;;;;;;4321880;28;658401;-65
2022/03/22 12:13:53;;;;;;;25.40;14.50;;;20.60;99.90;;;;;;4329781;28;659628;-66
2022/03/22 12:16:42;;;;;;;26.73;13.43;;;20.70;99.90;;;;;;4313852;28;658449;-66
2022/03/22 12:19:31;;;;;;;26.83;15.57;;;21.40;99.90;;;;;;4332142;28;658723;-66
2022/03/22 12:22:22;;;;;;;33.17;13.90;;;22.40;99.90;;;;;;4316657;28;659419;-66
2022/03/22 12:25:11;;;;;;;28.33;14.50;;;22.20;99.90;;;;;;4317017;28;659059;-66
2022/03/22 12:27:59;;;;;;;26.00;13.97;;;21.70;99.90;;;;;;4313464;28;660338;-66
2022/03/22 12:30:48;;;;;;;30.87;15.63;;;21.30;99.90;;;;;;4314438;28;660435;-65
2022/03/22 12:33:38;;;;;;;32.93;15.10;;;21.40;99.90;;;;;;4326160;28;658545;-66
2022/03/22 12:36:26;;;;;;;28.83;16.03;;;21.60;99.90;;;;;;4311339;28;659335;-66
2022/03/22 12:39:14;;;;;;;34.20;16.67;;;21.90;99.90;;;;;;4333596;28;660126;-65
2022/03/22 12:42:01;;;;;;;33.90;16.60;;;21.30;99.90;;;;;;4312423;28;658501;-66
2022/03/22 12:44:49;;;;;;;26.17;14.03;;;21.60;99.90;;;;;;4331633;28;659450;-66
2022/03/22 12:47:38;;;;;;;31.13;15.27;;;22.10;99.90;;;;;;4316372;28;660117;-66
2022/03/22 12:50:28;;;;;;;32.20;15.33;;;22.50;99.90;;;;;;4316811;28;658498;-66
2022/03/22 12:53:15;;;;;;;32.88;15.57;;;22.60;99.90;;;;;;4328456;28;659377;-65
2022/03/22 12:56:14;;;;;;;23.67;13.00;;;22.20;99.90;;;;;;4327498;28;659327;-65
2022/03/22 12:59:01;;;;;;;23.43;12.30;;;22.10;99.90;;;;;;4307897;28;658461;-66
2022/03/22 13:01:57;;;;;;;22.83;13.53;;;22.70;99.90;;;;;;4326417;28;660215;-66
2022/03/22 13:04:47;;;;;;;28.13;14.70;;;23.20;99.90;;;;;;4300727;29;658953;-66
2022/03/22 13:07:37;;;;;;;27.23;14.30;;;23.70;99.90;;;;;;4311389;28;658320;-65
2022/03/22 13:15:01;;;;;;;31.17;16.67;;;24.10;99.90;;;;;;4328224;28;658450;-66
2022/03/22 13:16:37;;;;;;;39.93;16.57;;;23.60;99.90;;;;;;4304023;28;659954;-66
2022/03/22 13:19:24;;;;;;;29.20;15.83;;;23.80;99.90;;;;;;4354388;28;659492;-66
2022/03/22 13:22:17;;;;;;;29.83;15.70;;;24.30;99.90;;;;;;4325883;28;658519;-66
2022/03/22 13:25:09;;;;;;;26.10;14.90;;;24.50;99.90;;;;;;4322637;28;658241;-66
2022/03/22 13:27:57;;;;;;;31.87;15.47;;;24.30;99.90;;;;;;4328128;28;659277;-65
2022/03/22 13:30:47;;;;;;;28.90;15.73;;;24.20;99.90;;;;;;4342663;28;658386;-66
2022/03/22 13:33:35;;;;;;;27.97;15.57;;;24.10;99.90;;;;;;4337019;28;658485;-65
2022/03/22 13:36:23;;;;;;;33.03;15.90;;;24.10;99.90;;;;;;4325770;28;659776;-66
2022/03/22 13:39:12;;;;;;;32.00;14.87;;;24.10;99.90;;;;;;4326137;28;658480;-66
2022/03/22 13:42:09;;;;;;;27.40;14.33;;;24.50;99.90;;;;;;4350816;28;659814;-66
2022/03/22 13:44:57;;;;;;;24.67;15.07;;;24.80;99.90;;;;;;4297190;28;660462;-66
2022/03/22 13:47:48;;;;;;;25.47;15.07;;;25.10;99.90;;;;;;4344710;28;658991;-66
2022/03/22 13:50:36;;;;;;;32.40;14.90;;;25.40;99.90;;;;;;4338100;28;658832;-66
2022/03/22 13:53:23;;;;;;;28.77;16.40;;;25.80;99.90;;;;;;4352401;28;659564;-66
2022/03/22 13:56:11;;;;;;;31.40;15.03;;;25.30;99.90;;;;;;4344434;28;658597;-65
2022/03/22 13:59:01;;;;;;;31.13;16.53;;;25.10;99.90;;;;;;4359526;28;660711;-66
2022/03/22 14:01:48;;;;;;;32.13;16.37;;;25.70;99.90;;;;;;4323726;28;659141;-65
2022/03/22 14:04:36;;;;;;;33.97;16.90;;;25.70;99.90;;;;;;4328663;28;658724;-66
2022/03/22 14:07:24;;;;;;;31.77;16.07;;;25.10;99.90;;;;;;4351761;28;659913;-66
2022/03/22 14:10:12;;;;;;;29.67;17.40;;;25.50;99.90;;;;;;4318297;28;658645;-66
2022/03/22 14:12:59;;;;;;;31.43;16.63;;;25.30;99.90;;;;;;4337662;28;658899;-66
2022/03/22 14:15:48;;;;;;;36.13;16.53;;;25.00;99.90;;;;;;4330724;28;658995;-65
2022/03/22 14:18:36;;;;;;;32.53;15.43;;;25.00;99.90;;;;;;4323603;28;658458;-66
2022/03/22 14:21:23;;;;;;;33.17;16.33;;;25.40;99.90;;;;;;4357737;28;660217;-66
2022/03/22 14:24:11;;;;;;;31.37;16.13;;;26.60;99.90;;;;;;4329068;28;658625;-66
2022/03/22 14:26:58;;;;;;;32.03;16.67;;;27.50;99.90;;;;;;4346008;28;659730;-66
2022/03/22 14:29:46;;;;;;;31.70;16.90;;;28.40;99.90;;;;;;4328378;28;659078;-66
2022/03/22 14:32:35;;;;;;;29.77;15.07;;;29.10;99.90;;;;;;4350338;28;660022;-66
2022/03/22 14:38:30;;;;;;;35.13;16.30;;;29.20;99.90;;;;;;4325662;28;658926;-65
2022/03/22 14:41:25;;;;;;;32.50;17.37;;;27.60;99.90;;;;;;4332482;28;659459;-66
2022/03/22 14:44:13;;;;;;;35.70;16.93;;;26.60;99.90;;;;;;4303704;28;658909;-66
2022/03/22 14:47:01;;;;;;;35.20;17.37;;;26.80;99.90;;;;;;4346469;28;658928;-66
2022/03/22 14:49:50;;;;;;;32.10;17.03;;;27.50;99.90;;;;;;4348457;28;659853;-66
2022/03/22 14:55:42;;;;;;;33.07;16.80;;;27.00;99.90;;;;;;4322705;28;658911;-66